createdAt,value
2023-01-11T00:17:48.535Z,4.69
2023-01-11T00:37:54.313Z,4.18
2023-01-11T00:58:00.067Z,4.45
2023-01-11T01:18:05.856Z,4.64
2023-01-11T01:38:11.568Z,3.76
2023-01-11T01:58:17.284Z,3.51
2023-01-11T02:18:23.008Z,3.70
2023-01-11T02:38:28.753Z,2.89
2023-01-11T02:58:34.469Z,3.26
2023-01-11T03:18:40.186Z,3.02
2023-01-11T03:38:45.939Z,3.52
2023-01-11T04:01:24.343Z,4.66
2023-01-11T04:19:00.108Z,3.71
2023-01-11T04:39:05.908Z,3.90
2023-01-11T04:59:11.637Z,4.21
2023-01-11T05:19:17.912Z,4.53
2023-01-11T05:39:23.685Z,4.78
2023-01-11T05:59:31.956Z,5.16
2023-01-11T06:19:34.703Z,5.45
2023-01-11T06:39:40.432Z,5.73
2023-01-11T06:59:46.178Z,6.62
2023-01-11T07:19:51.923Z,6.45
2023-01-11T07:39:57.706Z,6.38
2023-01-11T08:00:03.466Z,6.36
2023-01-11T08:20:09.221Z,6.17
2023-01-11T08:40:15.006Z,6.12
2023-01-11T09:00:20.741Z,6.02
2023-01-11T09:20:26.534Z,6.26
2023-01-11T09:40:32.259Z,6.11
2023-01-11T10:00:38.099Z,5.82
2023-01-11T10:20:43.836Z,5.43
2023-01-11T10:40:49.576Z,4.89
2023-01-11T11:00:55.375Z,4.57
2023-01-11T11:21:01.181Z,4.15
2023-01-11T11:41:06.964Z,4.43
2023-01-11T12:01:12.737Z,4.33
2023-01-11T12:21:18.514Z,4.41
2023-01-11T12:41:24.265Z,4.61
2023-01-11T13:01:30.049Z,5.52
2023-01-11T13:21:35.726Z,6.15
2023-01-11T13:41:41.445Z,5.92
2023-01-11T14:01:47.276Z,5.38
2023-01-11T14:21:52.990Z,5.25
2023-01-11T14:41:58.736Z,5.60
2023-01-11T15:02:04.789Z,7.06
2023-01-11T15:22:10.339Z,6.33
2023-01-11T15:42:16.132Z,7.06
2023-01-11T16:02:21.911Z,8.59
2023-01-11T16:22:27.684Z,10.04
2023-01-11T16:42:33.452Z,9.97
2023-01-11T17:02:39.229Z,9.70
2023-01-11T17:22:45.487Z,13.91
2023-01-11T17:42:51.281Z,16.35
2023-01-11T18:02:57.043Z,15.92
2023-01-11T18:23:05.046Z,28.49
2023-01-11T18:43:08.077Z,9.58
2023-01-11T19:23:19.174Z,5.23
2023-01-11T19:43:24.927Z,5.17
2023-01-11T20:23:40.133Z,7.54
2023-01-11T20:43:45.921Z,7.15
2023-01-11T21:03:51.609Z,7.05
2023-01-11T21:23:57.344Z,6.86
2023-01-11T21:44:03.046Z,5.76
2023-01-11T22:04:08.776Z,4.71
2023-01-11T22:24:14.440Z,3.50
2023-01-11T22:44:20.260Z,2.87
2023-01-11T23:04:25.949Z,3.84
2023-01-11T23:24:31.638Z,2.83
2023-01-11T23:44:37.364Z,1.73
